Wetterdaten: Woche 29.05.17 - 04.06.17 (KW22)
Datum Zeit Temp. A. Pool Temp. Feuchte A. Luftdruck Regen Wind Richtung Sonnenschein ET UV Solar Taupunkt Windchill Windben Empfang
29.05.2017 00:00 16,1 C 23,3 C 72 % 1016,9 hPa 0,0 l/m 2,8 km/h (1 Bft) O-NO 0,00 h 0,000 mm 0,0 UV-I 0 W/m 11,0 C 16,1 C 5,0 km/h (1 Bft) 95,61 %
29.05.2017 01:00 13,7 C 23,3 C 82 % 1016,7 hPa 0,0 l/m 1,0 km/h (0 Bft) O-NO 0,00 h 0,025 mm 0,0 UV-I 0 W/m 10,6 C 13,7 C 2,4 km/h (1 Bft) 98,82 %
29.05.2017 02:00 12,5 C 22,9 C 86 % 1016,3 hPa 0,0 l/m 0,9 km/h (0 Bft) O 0,00 h 0,000 mm 0,0 UV-I 0 W/m 10,2 C 12,5 C 2,1 km/h (1 Bft) 97,95 %
29.05.2017 03:00 11,9 C 22,8 C 89 % 1015,9 hPa 0,0 l/m 0,7 km/h (0 Bft) O-SO 0,00 h 0,000 mm 0,0 UV-I 0 W/m 10,1 C 11,9 C 2,1 km/h (1 Bft) 97,09 %
29.05.2017 04:00 11,5 C 22,8 C 89 % 1015,6 hPa 0,0 l/m 0,2 km/h (0 Bft) O-SO 0,00 h 0,000 mm 0,0 UV-I 4 W/m 9,8 C 11,5 C 0,8 km/h (0 Bft) 97,42 %
29.05.2017 05:00 10,9 C 22,6 C 91 % 1015,5 hPa 0,0 l/m 0,9 km/h (0 Bft) O-SO 0,43 h 0,000 mm 0,0 UV-I 27 W/m 9,6 C 10,9 C 2,2 km/h (1 Bft) 97,86 %
29.05.2017 06:00 12,0 C 22,2 C 89 % 1015,7 hPa 0,0 l/m 0,5 km/h (0 Bft) O-SO 0,50 h 0,026 mm 0,0 UV-I 117 W/m 10,3 C 12,0 C 1,6 km/h (1 Bft) 96,06 %
29.05.2017 07:00 15,0 C 22,2 C 81 % 1015,8 hPa 0,0 l/m 0,4 km/h (0 Bft) O-SO 1,00 h 0,051 mm 0,8 UV-I 308 W/m 11,8 C 15,0 C 1,7 km/h (1 Bft) 96,71 %
29.05.2017 08:00 17,2 C 22,8 C 77 % 1015,9 hPa 0,0 l/m 1,1 km/h (0 Bft) N-NO 1,00 h 0,152 mm 1,7 UV-I 481 W/m 13,2 C 17,2 C 2,8 km/h (1 Bft) 98,61 %
29.05.2017 09:00 19,3 C 22,8 C 71 % 1015,6 hPa 0,0 l/m 1,7 km/h (1 Bft) NO 1,00 h 0,279 mm 2,9 UV-I 617 W/m 13,8 C 19,3 C 3,9 km/h (1 Bft) 97,01 %
29.05.2017 10:00 21,7 C 22,8 C 66 % 1015,3 hPa 0,0 l/m 2,0 km/h (1 Bft) O-NO 1,00 h 0,356 mm 4,4 UV-I 765 W/m 15,0 C 21,7 C 4,2 km/h (1 Bft) 97,20 %
29.05.2017 11:00 23,6 C 23,1 C 60 % 1015,1 hPa 0,0 l/m 1,5 km/h (1 Bft) W-NW 1,00 h 0,457 mm 5,7 UV-I 852 W/m 15,4 C 23,6 C 4,0 km/h (1 Bft) 97,45 %
29.05.2017 12:00 25,4 C 23,5 C 51 % 1014,7 hPa 0,0 l/m 2,4 km/h (1 Bft) NO 1,00 h 0,534 mm 6,5 UV-I 902 W/m 14,6 C 25,4 C 4,8 km/h (1 Bft) 97,42 %
29.05.2017 13:00 27,1 C 23,9 C 40 % 1014,2 hPa 0,0 l/m 2,1 km/h (1 Bft) N-NO 1,00 h 0,584 mm 6,4 UV-I 894 W/m 12,2 C 27,1 C 5,2 km/h (1 Bft) 95,58 %
29.05.2017 14:00 27,9 C 24,4 C 31 % 1013,6 hPa 0,0 l/m 2,9 km/h (1 Bft) NO 1,00 h 0,609 mm 5,6 UV-I 826 W/m 9,3 C 27,9 C 5,7 km/h (1 Bft) 96,72 %
29.05.2017 15:00 28,6 C 24,8 C 31 % 1013,2 hPa 0,0 l/m 2,0 km/h (1 Bft) O-NO 1,00 h 0,585 mm 4,2 UV-I 712 W/m 9,5 C 28,6 C 4,1 km/h (1 Bft) 97,36 %
29.05.2017 16:00 29,2 C 25,0 C 29 % 1012,7 hPa 0,0 l/m 3,2 km/h (1 Bft) NO 1,00 h 0,508 mm 2,8 UV-I 580 W/m 9,1 C 29,2 C 6,0 km/h (2 Bft) 96,60 %
29.05.2017 17:00 29,1 C 25,0 C 34 % 1012,2 hPa 0,0 l/m 7,5 km/h (2 Bft) O-NO 1,00 h 0,431 mm 1,6 UV-I 447 W/m 11,7 C 28,9 C 12,5 km/h (3 Bft) 96,66 %
29.05.2017 18:00 28,4 C 25,1 C 39 % 1011,7 hPa 0,0 l/m 5,7 km/h (1 Bft) O-NO 0,73 h 0,381 mm 0,8 UV-I 241 W/m 13,0 C 28,4 C 8,8 km/h (2 Bft) 97,09 %
29.05.2017 19:00 26,8 C 25,3 C 44 % 1011,4 hPa 0,0 l/m 2,3 km/h (1 Bft) O-NO 0,37 h 0,229 mm 0,0 UV-I 100 W/m 13,4 C 26,8 C 3,9 km/h (1 Bft) 94,90 %
29.05.2017 20:00 25,1 C 25,0 C 51 % 1011,4 hPa 0,0 l/m 0,5 km/h (0 Bft) O-NO 0,17 h 0,102 mm 0,0 UV-I 23 W/m 14,2 C 25,1 C 1,1 km/h (1 Bft) 98,27 %
29.05.2017 21:00 23,4 C 25,0 C 56 % 1011,7 hPa 0,0 l/m 1,9 km/h (1 Bft) O-NO 0,00 h 0,025 mm 0,0 UV-I 5 W/m 14,1 C 23,4 C 3,1 km/h (1 Bft) 96,60 %
29.05.2017 22:00 23,2 C 25,0 C 55 % 1011,8 hPa 0,0 l/m 4,2 km/h (1 Bft) O-NO 0,00 h 0,025 mm 0,0 UV-I 0 W/m 13,6 C 23,2 C 6,5 km/h (2 Bft) 97,51 %
29.05.2017 23:00 20,0 C 25,0 C 71 % 1011,7 hPa 0,0 l/m 1,1 km/h (0 Bft) O 0,00 h 0,051 mm 0,0 UV-I 0 W/m 14,6 C 20,0 C 2,3 km/h (1 Bft) 95,60 %
30.05.2017 00:00 18,1 C 24,9 C 77 % 1011,7 hPa 0,0 l/m 1,5 km/h (1 Bft) O 0,00 h 0,000 mm 0,0 UV-I 0 W/m 14,0 C 18,1 C 3,0 km/h (1 Bft) 98,32 %
30.05.2017 01:00 17,1 C 24,4 C 74 % 1011,9 hPa 0,0 l/m 1,6 km/h (1 Bft) O-SO 0,00 h 0,000 mm 0,0 UV-I 0 W/m 12,5 C 17,1 C 3,1 km/h (1 Bft) 97,27 %
30.05.2017 02:00 16,7 C 24,4 C 70 % 1012,0 hPa 0,0 l/m 1,7 km/h (1 Bft) O-SO 0,00 h 0,025 mm 0,0 UV-I 0 W/m 11,2 C 16,7 C 3,3 km/h (1 Bft) 96,94 %
30.05.2017 03:00 16,6 C 24,4 C 71 % 1011,8 hPa 0,0 l/m 1,4 km/h (1 Bft) SO 0,00 h 0,026 mm 0,0 UV-I 0 W/m 11,3 C 16,6 C 2,9 km/h (1 Bft) 96,34 %
30.05.2017 04:00 16,3 C 24,0 C 72 % 1011,7 hPa 0,0 l/m 1,2 km/h (1 Bft) SO 0,00 h 0,025 mm 0,0 UV-I 4 W/m 11,2 C 16,3 C 2,5 km/h (1 Bft) 98,27 %
30.05.2017 05:00 15,2 C 23,9 C 77 % 1011,9 hPa 0,0 l/m 1,2 km/h (1 Bft) SO 0,13 h 0,000 mm 0,0 UV-I 21 W/m 11,2 C 15,2 C 2,3 km/h (1 Bft) 97,04 %
30.05.2017 06:00 15,6 C 23,9 C 78 % 1012,2 hPa 0,0 l/m 1,5 km/h (1 Bft) SO 0,20 h 0,026 mm 0,0 UV-I 88 W/m 11,7 C 15,6 C 2,9 km/h (1 Bft) 95,30 %
30.05.2017 07:00 17,7 C 23,9 C 74 % 1012,8 hPa 0,0 l/m 5,4 km/h (1 Bft) S-SW 0,20 h 0,050 mm 0,5 UV-I 159 W/m 12,9 C 17,5 C 8,4 km/h (2 Bft) 95,90 %
30.05.2017 08:00 20,5 C 23,9 C 66 % 1013,1 hPa 0,0 l/m 5,6 km/h (1 Bft) W-SW 0,90 h 0,102 mm 1,4 UV-I 426 W/m 13,8 C 20,3 C 10,2 km/h (2 Bft) 97,98 %
30.05.2017 09:00 23,3 C 23,9 C 57 % 1013,1 hPa 0,0 l/m 6,6 km/h (2 Bft) W-SW 1,00 h 0,279 mm 2,7 UV-I 603 W/m 14,4 C 23,0 C 11,9 km/h (2 Bft) 94,96 %
30.05.2017 10:00 25,2 C 24,0 C 54 % 1012,9 hPa 0,0 l/m 5,7 km/h (1 Bft) W 1,00 h 0,407 mm 4,1 UV-I 728 W/m 15,1 C 25,0 C 10,8 km/h (2 Bft) 95,60 %
30.05.2017 11:00 26,5 C 24,4 C 51 % 1012,8 hPa 0,0 l/m 5,5 km/h (1 Bft) W-SW 1,00 h 0,508 mm 5,3 UV-I 823 W/m 15,4 C 26,4 C 11,0 km/h (2 Bft) 97,21 %
30.05.2017 12:00 27,6 C 24,8 C 48 % 1012,5 hPa 0,0 l/m 3,8 km/h (1 Bft) S 1,00 h 0,559 mm 6,1 UV-I 878 W/m 15,4 C 27,6 C 7,9 km/h (2 Bft) 97,58 %
30.05.2017 13:00 28,5 C 25,2 C 47 % 1012,1 hPa 0,0 l/m 2,7 km/h (1 Bft) N-NO 1,00 h 0,609 mm 6,1 UV-I 876 W/m 15,9 C 28,5 C 6,3 km/h (2 Bft) 94,07 %
30.05.2017 14:00 29,3 C 25,7 C 44 % 1011,3 hPa 0,0 l/m 2,5 km/h (1 Bft) N-NO 1,00 h 0,610 mm 5,4 UV-I 829 W/m 15,8 C 29,3 C 5,9 km/h (2 Bft) 98,43 %
30.05.2017 15:00 29,7 C 26,1 C 46 % 1010,4 hPa 0,0 l/m 2,7 km/h (1 Bft) N-NO 1,00 h 0,584 mm 4,1 UV-I 729 W/m 16,8 C 29,7 C 5,8 km/h (2 Bft) 96,70 %
30.05.2017 16:00 30,1 C 26,4 C 44 % 1009,8 hPa 0,0 l/m 3,1 km/h (1 Bft) O-NO 1,00 h 0,508 mm 2,8 UV-I 596 W/m 16,3 C 30,1 C 6,4 km/h (2 Bft) 96,29 %
30.05.2017 17:00 30,0 C 26,7 C 43 % 1009,5 hPa 0,0 l/m 2,1 km/h (1 Bft) NO 1,00 h 0,432 mm 1,6 UV-I 445 W/m 16,0 C 30,0 C 4,3 km/h (1 Bft) 98,21 %
30.05.2017 18:00 29,2 C 26,7 C 44 % 1010,0 hPa 0,0 l/m 2,3 km/h (1 Bft) W-SW 0,30 h 0,330 mm 0,7 UV-I 170 W/m 15,8 C 29,2 C 4,5 km/h (1 Bft) 94,33 %
30.05.2017 19:00 26,9 C 26,7 C 53 % 1010,6 hPa 0,0 l/m 4,9 km/h (1 Bft) S-SW 0,00 h 0,152 mm 0,0 UV-I 53 W/m 16,3 C 26,7 C 9,1 km/h (2 Bft) 97,28 %
30.05.2017 20:00 23,2 C 26,7 C 62 % 1012,1 hPa 0,0 l/m 18,3 km/h (3 Bft) SW 0,00 h 0,077 mm 0,0 UV-I 6 W/m 15,6 C 20,7 C 31,5 km/h (5 Bft) 97,45 %
30.05.2017 21:00 19,3 C 26,6 C 78 % 1013,5 hPa 1,0 l/m 17,6 km/h (3 Bft) W-SW 0,00 h 0,101 mm 0,0 UV-I 0 W/m 15,4 C 15,8 C 26,9 km/h (4 Bft) 97,63 %
30.05.2017 22:00 18,0 C 26,1 C 87 % 1013,9 hPa 0,8 l/m 13,2 km/h (3 Bft) W-SW 0,00 h 0,051 mm 0,0 UV-I 0 W/m 15,8 C 15,4 C 20,2 km/h (4 Bft) 95,63 %
30.05.2017 23:00 17,7 C 26,1 C 90 % 1013,9 hPa 0,2 l/m 6,1 km/h (2 Bft) SW 0,00 h 0,025 mm 0,0 UV-I 0 W/m 16,0 C 17,0 C 10,2 km/h (2 Bft) 97,72 %
31.05.2017 00:00 17,5 C 26,1 C 91 % 1014,8 hPa 1,0 l/m 4,8 km/h (1 Bft) W-SW 0,00 h 0,000 mm 0,0 UV-I 0 W/m 16,1 C 17,0 C 8,6 km/h (2 Bft) 97,43 %
31.05.2017 01:00 17,4 C 25,8 C 93 % 1015,4 hPa 0,2 l/m 3,8 km/h (1 Bft) SW 0,00 h 0,000 mm 0,0 UV-I 0 W/m 16,3 C 17,4 C 6,4 km/h (2 Bft) 97,35 %
31.05.2017 02:00 17,5 C 25,6 C 93 % 1015,6 hPa 0,0 l/m 4,0 km/h (1 Bft) S-SW 0,00 h 0,000 mm 0,0 UV-I 0 W/m 16,2 C 17,5 C 7,6 km/h (2 Bft) 95,88 %
31.05.2017 03:00 17,4 C 25,6 C 92 % 1015,8 hPa 0,0 l/m 5,7 km/h (1 Bft) S-SW 0,00 h 0,000 mm 0,0 UV-I 0 W/m 16,1 C 17,4 C 8,8 km/h (2 Bft) 97,94 %
31.05.2017 04:00 17,2 C 25,3 C 93 % 1015,8 hPa 0,0 l/m 3,7 km/h (1 Bft) SW 0,00 h 0,000 mm 0,0 UV-I 0 W/m 16,0 C 17,2 C 6,5 km/h (2 Bft) 96,06 %
31.05.2017 05:00 17,1 C 25,0 C 93 % 1016,2 hPa 0,0 l/m 4,0 km/h (1 Bft) W-SW 0,00 h 0,000 mm 0,0 UV-I 17 W/m 16,0 C 17,1 C 6,6 km/h (2 Bft) 97,04 %
31.05.2017 06:00 17,2 C 25,0 C 93 % 1016,7 hPa 0,0 l/m 5,3 km/h (1 Bft) SW 0,23 h 0,025 mm 0,0 UV-I 94 W/m 16,0 C 17,0 C 8,3 km/h (2 Bft) 96,45 %
31.05.2017 07:00 18,3 C 25,0 C 89 % 1017,0 hPa 0,0 l/m 9,3 km/h (2 Bft) W-SW 0,13 h 0,051 mm 0,5 UV-I 135 W/m 16,5 C 17,0 C 15,0 km/h (3 Bft) 97,38 %
31.05.2017 08:00 19,5 C 25,0 C 85 % 1017,3 hPa 0,0 l/m 10,0 km/h (2 Bft) W-SW 0,57 h 0,102 mm 1,0 UV-I 303 W/m 16,9 C 18,2 C 15,8 km/h (3 Bft) 97,61 %
31.05.2017 09:00 20,9 C 25,0 C 80 % 1017,7 hPa 0,0 l/m 11,5 km/h (2 Bft) W-SW 0,60 h 0,203 mm 1,9 UV-I 433 W/m 17,4 C 19,2 C 17,8 km/h (3 Bft) 95,96 %
31.05.2017 10:00 22,3 C 25,0 C 76 % 1017,9 hPa 0,0 l/m 12,3 km/h (3 Bft) W-SW 0,97 h 0,279 mm 3,5 UV-I 675 W/m 17,8 C 20,7 C 18,7 km/h (3 Bft) 97,06 %
31.05.2017 11:00 23,3 C 25,5 C 72 % 1017,8 hPa 0,0 l/m 8,1 km/h (2 Bft) W-SW 0,50 h 0,458 mm 3,4 UV-I 586 W/m 17,9 C 22,7 C 14,3 km/h (3 Bft) 96,39 %
31.05.2017 12:00 23,2 C 25,6 C 72 % 1017,7 hPa 0,0 l/m 7,9 km/h (2 Bft) SW 0,37 h 0,381 mm 3,6 UV-I 496 W/m 18,0 C 22,8 C 13,1 km/h (3 Bft) 96,64 %
31.05.2017 13:00 24,5 C 25,8 C 67 % 1017,4 hPa 0,0 l/m 8,7 km/h (2 Bft) W-SW 0,63 h 0,381 mm 4,2 UV-I 640 W/m 17,8 C 23,9 C 14,7 km/h (3 Bft) 93,95 %
31.05.2017 14:00 25,7 C 26,1 C 60 % 1016,8 hPa 0,0 l/m 7,4 km/h (2 Bft) W-NW 0,97 h 0,431 mm 5,1 UV-I 843 W/m 17,4 C 25,3 C 13,5 km/h (3 Bft) 95,97 %
31.05.2017 15:00 26,2 C 26,5 C 58 % 1016,4 hPa 0,0 l/m 6,9 km/h (2 Bft) W-SW 0,80 h 0,559 mm 3,5 UV-I 659 W/m 17,2 C 25,8 C 11,7 km/h (2 Bft) 95,62 %
31.05.2017 16:00 25,9 C 26,7 C 59 % 1015,8 hPa 0,0 l/m 4,3 km/h (1 Bft) W-SW 0,70 h 0,432 mm 2,3 UV-I 481 W/m 17,4 C 25,8 C 9,6 km/h (2 Bft) 96,60 %
31.05.2017 17:00 25,7 C 26,7 C 59 % 1015,5 hPa 0,0 l/m 3,0 km/h (1 Bft) W-NW 1,00 h 0,330 mm 1,5 UV-I 416 W/m 17,0 C 25,7 C 8,4 km/h (2 Bft) 95,00 %
31.05.2017 18:00 25,7 C 26,7 C 54 % 1015,3 hPa 0,0 l/m 6,2 km/h (2 Bft) W-SW 1,00 h 0,280 mm 0,7 UV-I 261 W/m 15,7 C 25,5 C 11,3 km/h (2 Bft) 97,15 %
31.05.2017 19:00 25,1 C 26,7 C 56 % 1015,5 hPa 0,0 l/m 4,3 km/h (1 Bft) W-SW 0,53 h 0,203 mm 0,0 UV-I 116 W/m 15,7 C 25,1 C 7,0 km/h (2 Bft) 96,28 %
31.05.2017 20:00 23,0 C 26,7 C 65 % 1015,8 hPa 0,0 l/m 2,5 km/h (1 Bft) SW 0,60 h 0,101 mm 0,0 UV-I 35 W/m 16,1 C 23,0 C 4,5 km/h (1 Bft) 97,42 %
31.05.2017 21:00 20,6 C 26,7 C 77 % 1016,1 hPa 0,0 l/m 0,5 km/h (0 Bft) SW 0,00 h 0,051 mm 0,0 UV-I 5 W/m 16,5 C 20,6 C 2,1 km/h (1 Bft) 95,39 %
31.05.2017 22:00 20,1 C 26,4 C 78 % 1016,5 hPa 0,0 l/m 3,3 km/h (1 Bft) SW 0,00 h 0,000 mm 0,0 UV-I 0 W/m 16,1 C 20,1 C 6,1 km/h (2 Bft) 98,66 %
31.05.2017 23:00 19,7 C 26,1 C 80 % 1016,7 hPa 0,0 l/m 5,0 km/h (1 Bft) SW 0,00 h 0,026 mm 0,0 UV-I 0 W/m 16,0 C 19,6 C 7,7 km/h (2 Bft) 97,09 %
01.06.2017 00:00 18,7 C 26,1 C 83 % 1017,0 hPa 0,0 l/m 0,7 km/h (0 Bft) NO 0,00 h 0,000 mm 0,0 UV-I 0 W/m 15,8 C 18,7 C 1,4 km/h (1 Bft) 97,35 %
01.06.2017 01:00 17,8 C 26,1 C 87 % 1017,2 hPa 0,0 l/m 0,7 km/h (0 Bft) NO 0,00 h 0,000 mm 0,0 UV-I 0 W/m 15,7 C 17,8 C 1,8 km/h (1 Bft) 95,75 %
01.06.2017 02:00 17,6 C 26,0 C 86 % 1017,3 hPa 0,0 l/m 3,9 km/h (1 Bft) NO 0,00 h 0,000 mm 0,0 UV-I 0 W/m 15,2 C 17,5 C 6,2 km/h (2 Bft) 98,19 %
01.06.2017 03:00 17,6 C 25,6 C 83 % 1017,2 hPa 0,0 l/m 4,7 km/h (1 Bft) NO 0,00 h 0,000 mm 0,0 UV-I 0 W/m 14,6 C 17,6 C 7,1 km/h (2 Bft) 97,15 %
01.06.2017 04:00 16,8 C 25,6 C 85 % 1017,2 hPa 0,0 l/m 2,9 km/h (1 Bft) NO 0,00 h 0,025 mm 0,0 UV-I 4 W/m 14,3 C 16,8 C 5,0 km/h (1 Bft) 96,52 %
01.06.2017 05:00 16,5 C 25,6 C 88 % 1017,4 hPa 0,0 l/m 3,2 km/h (1 Bft) NO 0,23 h 0,000 mm 0,0 UV-I 24 W/m 14,5 C 16,5 C 5,5 km/h (1 Bft) 95,70 %
01.06.2017 06:00 17,0 C 25,1 C 88 % 1017,8 hPa 0,0 l/m 1,2 km/h (1 Bft) O-NO 0,13 h 0,026 mm 0,0 UV-I 71 W/m 14,9 C 17,0 C 2,9 km/h (1 Bft) 97,57 %
01.06.2017 07:00 18,0 C 25,0 C 81 % 1018,0 hPa 0,0 l/m 5,2 km/h (1 Bft) O-NO 0,40 h 0,051 mm 0,6 UV-I 185 W/m 14,8 C 17,8 C 8,4 km/h (2 Bft) 96,36 %
01.06.2017 08:00 19,2 C 25,0 C 76 % 1018,4 hPa 0,0 l/m 11,3 km/h (2 Bft) O-NO 0,23 h 0,127 mm 0,9 UV-I 257 W/m 14,8 C 17,3 C 17,5 km/h (3 Bft) 96,62 %
01.06.2017 09:00 19,8 C 25,0 C 73 % 1018,5 hPa 0,0 l/m 12,1 km/h (2 Bft) NO 0,55 h 0,177 mm 1,8 UV-I 393 W/m 14,7 C 17,8 C 18,6 km/h (3 Bft) 97,20 %
01.06.2017 10:00 21,3 C 25,0 C 66 % 1018,5 hPa 0,0 l/m 13,5 km/h (3 Bft) NO 0,98 h 0,280 mm 3,7 UV-I 728 W/m 14,7 C 19,2 C 20,3 km/h (4 Bft) 97,97 %
01.06.2017 11:00 22,1 C 25,6 C 62 % 1018,5 hPa 0,0 l/m 10,7 km/h (2 Bft) O-NO 0,93 h 0,482 mm 4,9 UV-I 797 W/m 14,4 C 20,8 C 16,5 km/h (3 Bft) 96,65 %
01.06.2017 12:00 23,1 C 25,6 C 59 % 1018,4 hPa 0,0 l/m 5,9 km/h (2 Bft) O-NO 1,00 h 0,534 mm 5,7 UV-I 875 W/m 14,7 C 22,8 C 11,4 km/h (2 Bft) 94,87 %
01.06.2017 13:00 23,8 C 26,1 C 59 % 1018,2 hPa 0,0 l/m 4,4 km/h (1 Bft) NO 0,87 h 0,559 mm 5,5 UV-I 804 W/m 15,2 C 23,7 C 8,6 km/h (2 Bft) 95,45 %
01.06.2017 14:00 24,2 C 26,1 C 56 % 1017,7 hPa 0,0 l/m 2,1 km/h (1 Bft) W 0,57 h 0,533 mm 3,8 UV-I 597 W/m 14,9 C 24,2 C 4,7 km/h (1 Bft) 97,85 %
01.06.2017 15:00 24,0 C 26,1 C 56 % 1017,3 hPa 0,0 l/m 2,8 km/h (1 Bft) S 0,00 h 0,356 mm 2,2 UV-I 339 W/m 14,7 C 24,0 C 5,7 km/h (1 Bft) 96,62 %
01.06.2017 16:00 24,1 C 26,5 C 58 % 1017,0 hPa 0,0 l/m 4,7 km/h (1 Bft) S-SO 0,40 h 0,228 mm 2,1 UV-I 414 W/m 15,3 C 24,1 C 9,2 km/h (2 Bft) 95,00 %
01.06.2017 17:00 24,5 C 26,7 C 58 % 1016,7 hPa 0,0 l/m 5,6 km/h (1 Bft) S-SO 0,77 h 0,305 mm 1,5 UV-I 400 W/m 15,6 C 24,4 C 10,2 km/h (2 Bft) 95,90 %
01.06.2017 18:00 24,2 C 26,7 C 59 % 1016,3 hPa 0,0 l/m 6,0 km/h (2 Bft) S 0,73 h 0,279 mm 0,7 UV-I 254 W/m 15,7 C 24,1 C 11,2 km/h (2 Bft) 97,54 %
01.06.2017 19:00 22,8 C 26,6 C 67 % 1016,5 hPa 0,0 l/m 6,3 km/h (2 Bft) S-SW 0,23 h 0,204 mm 0,0 UV-I 103 W/m 16,4 C 22,7 C 10,8 km/h (2 Bft) 97,19 %
01.06.2017 20:00 21,6 C 26,1 C 74 % 1016,7 hPa 0,0 l/m 5,0 km/h (1 Bft) SW 0,63 h 0,101 mm 0,0 UV-I 43 W/m 16,8 C 21,6 C 7,8 km/h (2 Bft) 94,78 %
01.06.2017 21:00 20,3 C 26,1 C 80 % 1016,8 hPa 0,0 l/m 3,7 km/h (1 Bft) SW 0,00 h 0,051 mm 0,0 UV-I 10 W/m 16,7 C 20,3 C 5,7 km/h (1 Bft) 97,11 %
01.06.2017 22:00 19,5 C 26,1 C 84 % 1017,0 hPa 0,0 l/m 3,6 km/h (1 Bft) SW 0,00 h 0,025 mm 0,0 UV-I 0 W/m 16,8 C 19,5 C 5,9 km/h (2 Bft) 96,53 %
01.06.2017 23:00 18,8 C 26,1 C 87 % 1017,1 hPa 0,0 l/m 1,3 km/h (1 Bft) S-SW 0,00 h 0,026 mm 0,0 UV-I 0 W/m 16,6 C 18,8 C 2,7 km/h (1 Bft) 96,83 %
02.06.2017 00:00 18,2 C 25,8 C 90 % 1017,0 hPa 0,0 l/m 0,1 km/h (0 Bft) S-SW 0,00 h 0,000 mm 0,0 UV-I 0 W/m 16,5 C 18,2 C 0,7 km/h (0 Bft) 95,82 %
02.06.2017 01:00 18,5 C 25,6 C 88 % 1016,7 hPa 0,0 l/m 1,4 km/h (1 Bft) S 0,00 h 0,000 mm 0,0 UV-I 0 W/m 16,4 C 18,5 C 3,4 km/h (1 Bft) 98,28 %
02.06.2017 02:00 17,9 C 25,6 C 89 % 1016,5 hPa 0,0 l/m 0,1 km/h (0 Bft) N 0,00 h 0,000 mm 0,0 UV-I 0 W/m 16,0 C 17,9 C 0,8 km/h (0 Bft) 97,53 %
02.06.2017 03:00 17,6 C 25,6 C 90 % 1016,3 hPa 0,0 l/m 2,2 km/h (1 Bft) O 0,00 h 0,000 mm 0,0 UV-I 0 W/m 16,0 C 17,6 C 3,4 km/h (1 Bft) 97,18 %
02.06.2017 04:00 17,6 C 25,5 C 89 % 1016,2 hPa 0,0 l/m 1,1 km/h (0 Bft) O-NO 0,00 h 0,000 mm 0,0 UV-I 3 W/m 15,8 C 17,6 C 2,0 km/h (1 Bft) 95,87 %
02.06.2017 05:00 17,3 C 25,0 C 89 % 1016,1 hPa 0,0 l/m 0,6 km/h (0 Bft) O-NO 0,67 h 0,000 mm 0,0 UV-I 32 W/m 15,6 C 17,3 C 1,9 km/h (1 Bft) 98,00 %
02.06.2017 06:00 17,5 C 25,0 C 90 % 1016,2 hPa 0,0 l/m 1,2 km/h (1 Bft) O-NO 0,30 h 0,025 mm 0,0 UV-I 92 W/m 15,9 C 17,5 C 2,0 km/h (1 Bft) 95,30 %
02.06.2017 07:00 18,9 C 25,0 C 86 % 1016,4 hPa 0,0 l/m 3,2 km/h (1 Bft) NO 0,90 h 0,051 mm 0,7 UV-I 295 W/m 16,5 C 18,8 C 6,1 km/h (2 Bft) 95,57 %
02.06.2017 08:00 20,2 C 25,0 C 78 % 1016,6 hPa 0,0 l/m 3,2 km/h (1 Bft) O-NO 1,00 h 0,178 mm 1,5 UV-I 461 W/m 16,2 C 20,2 C 5,8 km/h (2 Bft) 96,46 %
02.06.2017 09:00 21,8 C 25,0 C 72 % 1016,5 hPa 0,0 l/m 2,2 km/h (1 Bft) NO 1,00 h 0,279 mm 2,7 UV-I 642 W/m 16,6 C 21,8 C 4,5 km/h (1 Bft) 98,19 %
02.06.2017 10:00 22,8 C 25,0 C 69 % 1016,4 hPa 0,0 l/m 2,8 km/h (1 Bft) N-NO 1,00 h 0,381 mm 3,8 UV-I 698 W/m 16,9 C 22,8 C 5,4 km/h (1 Bft) 96,73 %
02.06.2017 11:00 23,5 C 25,0 C 67 % 1016,1 hPa 0,0 l/m 3,1 km/h (1 Bft) S 0,67 h 0,407 mm 3,7 UV-I 562 W/m 17,0 C 23,5 C 6,1 km/h (2 Bft) 95,61 %
02.06.2017 12:00 23,9 C 25,0 C 66 % 1016,0 hPa 0,0 l/m 5,6 km/h (1 Bft) S-SW 0,30 h 0,355 mm 3,0 UV-I 473 W/m 17,1 C 23,8 C 10,0 km/h (2 Bft) 96,12 %
02.06.2017 13:00 24,3 C 25,0 C 62 % 1015,5 hPa 0,0 l/m 5,9 km/h (2 Bft) W 0,47 h 0,305 mm 4,1 UV-I 653 W/m 16,6 C 24,0 C 10,7 km/h (2 Bft) 97,91 %
02.06.2017 14:00 24,9 C 25,8 C 56 % 1014,8 hPa 0,0 l/m 8,1 km/h (2 Bft) W-SW 0,87 h 0,432 mm 4,4 UV-I 688 W/m 15,6 C 24,5 C 13,5 km/h (3 Bft) 96,27 %
02.06.2017 15:00 25,9 C 27,1 C 50 % 1014,5 hPa 0,0 l/m 8,0 km/h (2 Bft) S-SW 0,97 h 0,483 mm 4,1 UV-I 793 W/m 14,6 C 25,5 C 14,0 km/h (3 Bft) 95,42 %
02.06.2017 16:00 26,1 C 27,2 C 45 % 1014,1 hPa 0,0 l/m 5,3 km/h (1 Bft) SW 0,87 h 0,558 mm 2,7 UV-I 576 W/m 13,3 C 26,0 C 9,6 km/h (2 Bft) 96,68 %
02.06.2017 17:00 26,1 C 27,2 C 45 % 1013,4 hPa 0,0 l/m 5,9 km/h (2 Bft) S-SW 0,93 h 0,407 mm 1,6 UV-I 463 W/m 13,2 C 26,0 C 10,2 km/h (2 Bft) 98,12 %
02.06.2017 18:00 25,7 C 27,2 C 46 % 1013,3 hPa 0,0 l/m 4,0 km/h (1 Bft) S-SW 0,67 h 0,355 mm 0,7 UV-I 255 W/m 13,1 C 25,7 C 7,3 km/h (2 Bft) 96,19 %
02.06.2017 19:00 25,2 C 27,2 C 50 % 1013,3 hPa 0,0 l/m 2,4 km/h (1 Bft) S 0,93 h 0,204 mm 0,0 UV-I 139 W/m 13,9 C 25,2 C 4,3 km/h (1 Bft) 95,86 %
02.06.2017 20:00 22,7 C 27,2 C 61 % 1013,6 hPa 0,0 l/m 3,2 km/h (1 Bft) NO 0,17 h 0,101 mm 0,0 UV-I 27 W/m 14,7 C 22,6 C 5,2 km/h (1 Bft) 97,46 %
02.06.2017 21:00 20,1 C 26,8 C 73 % 1013,8 hPa 0,0 l/m 1,6 km/h (1 Bft) NO 0,00 h 0,051 mm 0,0 UV-I 6 W/m 15,1 C 20,1 C 2,7 km/h (1 Bft) 97,96 %
02.06.2017 22:00 18,5 C 26,7 C 79 % 1014,0 hPa 0,0 l/m 0,3 km/h (0 Bft) NO 0,00 h 0,025 mm 0,0 UV-I 0 W/m 14,8 C 18,5 C 0,9 km/h (0 Bft) 96,66 %
02.06.2017 23:00 17,8 C 26,7 C 81 % 1014,2 hPa 0,0 l/m 0,9 km/h (0 Bft) O 0,00 h 0,000 mm 0,0 UV-I 0 W/m 14,5 C 17,8 C 2,1 km/h (1 Bft) 97,29 %
03.06.2017 00:00 17,2 C 26,4 C 84 % 1014,2 hPa 0,0 l/m 2,4 km/h (1 Bft) S-SW 0,00 h 0,000 mm 0,0 UV-I 0 W/m 14,4 C 17,2 C 3,9 km/h (1 Bft) 94,49 %
03.06.2017 01:00 16,5 C 26,1 C 87 % 1014,2 hPa 0,0 l/m 1,1 km/h (1 Bft) S-SW 0,00 h 0,000 mm 0,0 UV-I 0 W/m 14,3 C 16,5 C 2,1 km/h (1 Bft) 97,36 %
03.06.2017 02:00 16,1 C 26,1 C 88 % 1014,2 hPa 0,0 l/m 1,3 km/h (1 Bft) S-SW 0,00 h 0,000 mm 0,0 UV-I 0 W/m 14,1 C 16,1 C 2,3 km/h (1 Bft) 95,61 %
03.06.2017 03:00 15,3 C 26,1 C 90 % 1014,0 hPa 0,0 l/m 1,2 km/h (1 Bft) S-SW 0,00 h 0,000 mm 0,0 UV-I 0 W/m 13,7 C 15,3 C 2,7 km/h (1 Bft) 97,87 %
03.06.2017 04:00 15,1 C 25,6 C 92 % 1013,9 hPa 0,0 l/m 0,9 km/h (0 Bft) S-SW 0,00 h 0,000 mm 0,0 UV-I 4 W/m 13,7 C 15,1 C 1,8 km/h (1 Bft) 97,27 %
03.06.2017 05:00 14,5 C 25,6 C 93 % 1014,1 hPa 0,0 l/m 0,9 km/h (0 Bft) S-SW 0,37 h 0,000 mm 0,0 UV-I 28 W/m 13,4 C 14,5 C 2,1 km/h (1 Bft) 96,35 %
03.06.2017 06:00 15,6 C 25,6 C 91 % 1014,4 hPa 0,0 l/m 3,6 km/h (1 Bft) SW 0,80 h 0,025 mm 0,0 UV-I 115 W/m 14,2 C 15,6 C 5,5 km/h (1 Bft) 97,40 %
03.06.2017 07:00 17,3 C 25,6 C 86 % 1014,7 hPa 0,0 l/m 3,2 km/h (1 Bft) SW 1,00 h 0,077 mm 0,7 UV-I 264 W/m 15,0 C 17,3 C 5,0 km/h (1 Bft) 98,15 %
03.06.2017 08:00 19,2 C 25,5 C 81 % 1014,9 hPa 0,0 l/m 1,4 km/h (1 Bft) S-SW 1,00 h 0,152 mm 1,4 UV-I 446 W/m 15,7 C 19,2 C 3,8 km/h (1 Bft) 95,38 %
03.06.2017 09:00 21,3 C 25,0 C 73 % 1014,6 hPa 0,0 l/m 1,7 km/h (1 Bft) W 1,00 h 0,254 mm 2,7 UV-I 604 W/m 16,3 C 21,3 C 3,8 km/h (1 Bft) 96,85 %
03.06.2017 10:00 22,8 C 25,0 C 69 % 1014,0 hPa 0,0 l/m 2,4 km/h (1 Bft) N-NO 1,00 h 0,356 mm 4,0 UV-I 735 W/m 16,8 C 22,8 C 5,4 km/h (1 Bft) 96,97 %
03.06.2017 11:00 24,1 C 25,4 C 66 % 1013,6 hPa 0,0 l/m 4,1 km/h (1 Bft) O-NO 1,00 h 0,457 mm 5,2 UV-I 828 W/m 17,3 C 24,0 C 8,3 km/h (2 Bft) 96,95 %
03.06.2017 12:00 25,2 C 25,7 C 62 % 1013,1 hPa 0,0 l/m 5,1 km/h (1 Bft) NO 1,00 h 0,533 mm 5,9 UV-I 876 W/m 17,2 C 25,1 C 10,0 km/h (2 Bft) 96,13 %
03.06.2017 13:00 26,4 C 26,1 C 53 % 1012,5 hPa 0,0 l/m 5,7 km/h (1 Bft) NO 1,00 h 0,584 mm 6,1 UV-I 888 W/m 16,1 C 26,2 C 9,9 km/h (2 Bft) 96,30 %
03.06.2017 14:00 27,0 C 26,2 C 50 % 1011,8 hPa 0,0 l/m 6,1 km/h (2 Bft) O-NO 0,97 h 0,610 mm 5,3 UV-I 828 W/m 15,6 C 26,8 C 10,8 km/h (2 Bft) 98,62 %
03.06.2017 15:00 27,8 C 26,7 C 46 % 1010,9 hPa 0,0 l/m 6,8 km/h (2 Bft) O-NO 1,00 h 0,584 mm 4,4 UV-I 759 W/m 15,2 C 27,7 C 12,2 km/h (3 Bft) 96,74 %
03.06.2017 16:00 28,0 C 26,7 C 45 % 1010,4 hPa 0,0 l/m 5,7 km/h (1 Bft) O-SO 1,00 h 0,559 mm 2,9 UV-I 611 W/m 15,0 C 27,9 C 10,7 km/h (2 Bft) 97,69 %
03.06.2017 17:00 27,9 C 26,7 C 48 % 1009,7 hPa 0,0 l/m 9,9 km/h (2 Bft) O-NO 1,00 h 0,457 mm 1,7 UV-I 450 W/m 15,8 C 27,4 C 15,5 km/h (3 Bft) 98,02 %
03.06.2017 18:00 27,3 C 26,8 C 49 % 1009,2 hPa 0,0 l/m 11,1 km/h (2 Bft) O-NO 1,00 h 0,381 mm 0,7 UV-I 249 W/m 15,5 C 26,5 C 16,4 km/h (3 Bft) 98,81 %
03.06.2017 19:00 25,7 C 27,0 C 54 % 1008,6 hPa 0,0 l/m 11,7 km/h (2 Bft) O-NO 0,17 h 0,254 mm 0,0 UV-I 83 W/m 15,7 C 24,7 C 17,0 km/h (3 Bft) 94,40 %
03.06.2017 20:00 23,6 C 27,2 C 62 % 1008,5 hPa 0,0 l/m 6,2 km/h (2 Bft) O-NO 0,13 h 0,153 mm 0,0 UV-I 24 W/m 15,9 C 23,5 C 9,7 km/h (2 Bft) 97,75 %
03.06.2017 21:00 22,4 C 27,2 C 65 % 1008,4 hPa 0,0 l/m 6,6 km/h (2 Bft) O-NO 0,00 h 0,050 mm 0,0 UV-I 5 W/m 15,4 C 22,1 C 10,8 km/h (2 Bft) 97,75 %
03.06.2017 22:00 21,7 C 27,2 C 67 % 1008,2 hPa 0,0 l/m 8,9 km/h (2 Bft) O-NO 0,00 h 0,051 mm 0,0 UV-I 0 W/m 15,2 C 20,8 C 13,2 km/h (3 Bft) 98,22 %
03.06.2017 23:00 20,8 C 27,0 C 72 % 1007,7 hPa 0,0 l/m 7,7 km/h (2 Bft) O-NO 0,00 h 0,051 mm 0,0 UV-I 0 W/m 15,6 C 20,3 C 11,6 km/h (2 Bft) 95,25 %
04.06.2017 00:00 19,5 C 26,7 C 78 % 1007,2 hPa 0,0 l/m 4,6 km/h (1 Bft) O-NO 0,00 h 0,000 mm 0,0 UV-I 0 W/m 15,6 C 19,5 C 6,4 km/h (2 Bft) 97,96 %
04.06.2017 01:00 17,8 C 26,7 C 84 % 1006,7 hPa 0,0 l/m 0,6 km/h (0 Bft) O-NO 0,00 h 0,025 mm 0,0 UV-I 0 W/m 15,2 C 17,8 C 1,0 km/h (0 Bft) 97,37 %
04.06.2017 02:00 16,8 C 26,6 C 88 % 1006,2 hPa 0,0 l/m 0,1 km/h (0 Bft) N 0,00 h 0,000 mm 0,0 UV-I 0 W/m 14,8 C 16,8 C 0,5 km/h (0 Bft) 97,16 %
04.06.2017 03:00 16,5 C 26,1 C 90 % 1005,7 hPa 0,0 l/m 0,3 km/h (0 Bft) O-NO 0,00 h 0,000 mm 0,0 UV-I 0 W/m 14,8 C 16,5 C 1,0 km/h (0 Bft) 95,70 %
04.06.2017 04:00 16,6 C 26,1 C 89 % 1006,0 hPa 0,0 l/m 4,0 km/h (1 Bft) SW 0,00 h 0,000 mm 0,0 UV-I 5 W/m 14,9 C 16,6 C 6,1 km/h (2 Bft) 97,59 %
04.06.2017 05:00 16,8 C 26,1 C 89 % 1006,8 hPa 0,0 l/m 7,1 km/h (2 Bft) SW 0,63 h 0,000 mm 0,0 UV-I 34 W/m 15,0 C 16,3 C 11,1 km/h (2 Bft) 97,17 %
04.06.2017 06:00 18,2 C 26,1 C 85 % 1007,3 hPa 0,0 l/m 12,2 km/h (2 Bft) SW 0,57 h 0,026 mm 0,0 UV-I 112 W/m 15,7 C 16,0 C 18,4 km/h (3 Bft) 96,30 %
04.06.2017 07:00 19,6 C 26,0 C 82 % 1007,8 hPa 0,0 l/m 11,2 km/h (2 Bft) SW 0,30 h 0,076 mm 0,7 UV-I 191 W/m 16,5 C 18,0 C 17,5 km/h (3 Bft) 95,31 %
04.06.2017 08:00 20,5 C 25,6 C 78 % 1008,6 hPa 0,0 l/m 13,9 km/h (3 Bft) W 0,20 h 0,152 mm 0,8 UV-I 188 W/m 16,5 C 18,2 C 21,1 km/h (4 Bft) 96,72 %
04.06.2017 09:00 20,1 C 25,6 C 78 % 1009,4 hPa 0,0 l/m 11,0 km/h (2 Bft) W-SW 0,00 h 0,153 mm 1,0 UV-I 147 W/m 16,1 C 18,5 C 18,4 km/h (3 Bft) 97,17 %
04.06.2017 10:00 21,0 C 25,2 C 73 % 1009,8 hPa 0,0 l/m 10,4 km/h (2 Bft) W-SW 0,20 h 0,127 mm 1,5 UV-I 282 W/m 15,9 C 19,7 C 17,2 km/h (3 Bft) 94,64 %
04.06.2017 11:00 20,7 C 25,0 C 66 % 1010,6 hPa 0,0 l/m 17,1 km/h (3 Bft) W-SW 0,00 h 0,203 mm 1,7 UV-I 250 W/m 14,1 C 17,7 C 26,6 km/h (4 Bft) 95,67 %
04.06.2017 12:00 20,0 C 25,0 C 68 % 1011,2 hPa 0,0 l/m 18,0 km/h (3 Bft) W-SW 0,00 h 0,229 mm 1,6 UV-I 227 W/m 14,0 C 16,7 C 28,8 km/h (4 Bft) 96,03 %
04.06.2017 13:00 18,3 C 25,2 C 77 % 1011,5 hPa 0,0 l/m 23,5 km/h (4 Bft) SW 0,00 h 0,203 mm 1,3 UV-I 180 W/m 14,1 C 13,4 C 35,8 km/h (5 Bft) 96,33 %
04.06.2017 14:00 17,5 C 25,0 C 84 % 1012,3 hPa 0,4 l/m 21,8 km/h (4 Bft) W-SW 0,00 h 0,178 mm 1,3 UV-I 202 W/m 14,7 C 12,6 C 33,7 km/h (5 Bft) 92,98 %
04.06.2017 15:00 17,3 C 25,0 C 85 % 1013,2 hPa 0,2 l/m 16,7 km/h (3 Bft) SW 0,00 h 0,152 mm 1,5 UV-I 260 W/m 14,8 C 13,5 C 25,5 km/h (4 Bft) 95,80 %
04.06.2017 16:00 18,2 C 25,0 C 80 % 1013,5 hPa 0,0 l/m 13,6 km/h (3 Bft) SW 0,00 h 0,178 mm 1,1 UV-I 220 W/m 14,8 C 15,5 C 22,0 km/h (4 Bft) 95,95 %
04.06.2017 17:00 18,2 C 25,0 C 75 % 1013,5 hPa 0,0 l/m 14,0 km/h (3 Bft) W-SW 0,00 h 0,152 mm 0,6 UV-I 121 W/m 13,8 C 15,5 C 21,6 km/h (4 Bft) 96,90 %
04.06.2017 18:00 17,1 C 25,0 C 81 % 1013,9 hPa 0,2 l/m 7,9 km/h (2 Bft) W-SW 0,00 h 0,127 mm 0,4 UV-I 51 W/m 13,8 C 16,1 C 12,7 km/h (3 Bft) 93,96 %
04.06.2017 19:00 16,6 C 24,5 C 90 % 1014,1 hPa 0,0 l/m 4,2 km/h (1 Bft) W-SW 0,00 h 0,051 mm 0,0 UV-I 63 W/m 14,9 C 16,6 C 6,7 km/h (2 Bft) 97,44 %
04.06.2017 20:00 16,5 C 24,4 C 90 % 1014,4 hPa 0,2 l/m 5,7 km/h (1 Bft) S-SW 0,03 h 0,051 mm 0,0 UV-I 11 W/m 14,8 C 15,6 C 10,0 km/h (2 Bft) 97,03 %
04.06.2017 21:00 15,6 C 24,4 C 90 % 1014,8 hPa 0,0 l/m 5,8 km/h (2 Bft) S-SW 0,00 h 0,025 mm 0,0 UV-I 5 W/m 14,0 C 15,5 C 9,2 km/h (2 Bft) 96,96 %
04.06.2017 22:00 14,7 C 24,4 C 91 % 1015,0 hPa 0,0 l/m 5,3 km/h (1 Bft) S-SW 0,00 h 0,000 mm 0,0 UV-I 0 W/m 13,2 C 14,6 C 8,5 km/h (2 Bft) 95,95 %
04.06.2017 23:00 13,9 C 24,0 C 92 % 1014,8 hPa 0,0 l/m 1,7 km/h (1 Bft) S 0,00 h 0,000 mm 0,0 UV-I 0 W/m 12,7 C 13,9 C 3,6 km/h (1 Bft) 98,03 %
Min-Datum _ 29.05.17 29.05.17 29.05.17 04.06.17 - 29.05.17 - - - - - 29.05.17 29.05.17 29.05.17 03.06.17
_ Min-Zeit 05:20 05:42 16:34 03:34 - 00:42 - - - - - 16:34 05:20 00:58 00:02
Minimum _ 10,7 C 22,2 C 20 % 1005,6 hPa - 0,0 km/h (0 Bft) - - - - - 4,0 C 10,7 C 0,0 km/h (0 Bft) 15,38 %
Max-Datum _ 30.05.17 02.06.17 31.05.17 01.06.17 30.05.17 30.05.17 - 01.06.17 30.05.17 29.05.17 31.05.17 31.05.17 30.05.17 30.05.17 29.05.17
_ Max-Zeit 16:12 14:32 01:16 09:04 21:36 20:42 - 09:50 14:00 13:08 11:34 12:56 17:46 20:42 00:04
Maximum _ 30,3 C 27,2 C 94 % 1018,6 hPa 1,0 l/m 28,8 km/h
SW (4 Bft)
- 0,08 h 0,610 mm 6,7 UV-I 1091 W/m 18,9 C 30,3 C 51,5 km/h
S-SW (7 Bft)
100,00 %
Durchschnitt _ 20,8 C 25,4 C 71 % 1014,0 hPa #4,2 l/m 5,1 km/h (1 Bft) SW #69:16 h #31,851 mm 2,8 UV-I 363 W/m 14,9 C 20,4 C 8,6 km/h (2 Bft) 96,72 %